createdAt,value
2023-02-17T00:02:30.551Z,2.60
2023-02-17T00:07:37.747Z,2.60
2023-02-17T00:12:44.678Z,2.80
2023-02-17T00:17:52.128Z,3.50
2023-02-17T00:22:59.631Z,5.10
2023-02-17T00:28:07.517Z,6.30
2023-02-17T00:33:14.894Z,6.30
2023-02-17T00:38:22.231Z,6.30
2023-02-17T00:43:29.470Z,6.60
2023-02-17T00:48:37.802Z,6.90
2023-02-17T00:53:45.688Z,7.10
2023-02-17T00:58:53.252Z,7.10
2023-02-17T01:04:00.762Z,7.20
2023-02-17T01:09:10.260Z,7.40
2023-02-17T01:14:17.266Z,7.50
2023-02-17T01:19:25.426Z,7.30
2023-02-17T01:24:33.004Z,7.30
2023-02-17T01:29:40.245Z,7.60
2023-02-17T01:34:49.860Z,7.50
2023-02-17T01:39:57.593Z,7.40
2023-02-17T01:45:24.345Z,7.30
2023-02-17T01:50:36.901Z,7.00
2023-02-17T01:55:46.655Z,7.00
2023-02-17T02:00:57.045Z,7.00
2023-02-17T02:06:10.584Z,7.10
2023-02-17T02:11:17.435Z,7.30
2023-02-17T02:16:55.190Z,7.30
2023-02-17T02:22:29.325Z,7.20
2023-02-17T02:27:58.735Z,7.20
2023-02-17T02:33:37.771Z,7.00
2023-02-17T02:39:04.806Z,6.80
2023-02-17T02:44:15.904Z,6.80
2023-02-17T02:49:23.110Z,6.60
2023-02-17T02:54:49.905Z,6.70
2023-02-17T03:00:34.490Z,6.60
2023-02-17T03:06:02.137Z,6.40
2023-02-17T03:11:09.277Z,6.40
2023-02-17T03:16:16.263Z,6.30
2023-02-17T03:21:24.239Z,6.20
2023-02-17T03:26:32.469Z,6.10
2023-02-17T03:31:39.772Z,6.10
2023-02-17T03:36:46.876Z,5.80
2023-02-17T03:41:56.483Z,5.90
2023-02-17T03:47:03.219Z,5.80
2023-02-17T03:52:11.438Z,5.80
2023-02-17T03:57:18.722Z,5.80
2023-02-17T04:02:27.429Z,6.10
2023-02-17T04:07:35.000Z,6.60
2023-02-17T04:12:42.110Z,6.30
2023-02-17T04:17:51.131Z,6.00
2023-02-17T04:22:58.068Z,6.00
2023-02-17T04:28:09.383Z,5.80
2023-02-17T04:33:16.791Z,5.80
2023-02-17T04:38:23.359Z,6.00
2023-02-17T04:43:31.342Z,6.00
2023-02-17T04:48:39.514Z,5.80
2023-02-17T04:53:46.650Z,5.90
2023-02-17T04:58:53.473Z,6.10
2023-02-17T05:04:00.635Z,6.00
2023-02-17T05:09:07.320Z,6.00
2023-02-17T05:14:14.980Z,6.20
2023-02-17T05:19:21.751Z,6.10
2023-02-17T05:24:29.005Z,5.60
2023-02-17T05:29:36.631Z,5.60
2023-02-17T05:34:45.110Z,5.80
2023-02-17T05:39:52.445Z,5.80
2023-02-17T05:44:59.723Z,5.80
2023-02-17T05:50:08.734Z,5.90
2023-02-17T05:55:16.307Z,5.90
2023-02-17T06:00:23.411Z,6.70
2023-02-17T06:05:31.891Z,7.10
2023-02-17T06:10:38.375Z,7.20
2023-02-17T06:15:46.842Z,7.40
2023-02-17T06:20:58.200Z,7.30
2023-02-17T06:26:06.084Z,7.50
2023-02-17T06:31:15.039Z,7.60
2023-02-17T06:36:22.600Z,7.50
2023-02-17T06:41:32.639Z,7.50
2023-02-17T06:46:39.797Z,7.60
2023-02-17T06:51:48.110Z,7.60
2023-02-17T06:56:56.049Z,7.60
2023-02-17T07:02:03.031Z,7.70
2023-02-17T07:07:10.460Z,7.80
2023-02-17T07:12:17.196Z,7.80
2023-02-17T07:17:24.838Z,7.80
2023-02-17T07:22:32.001Z,7.90
2023-02-17T07:27:39.717Z,7.90
2023-02-17T07:32:46.971Z,7.90
2023-02-17T07:37:53.632Z,8.00
2023-02-17T07:43:02.036Z,8.00
2023-02-17T07:48:10.302Z,8.10
2023-02-17T07:53:17.292Z,8.10
2023-02-17T07:58:26.765Z,8.20
2023-02-17T08:03:33.415Z,8.30
2023-02-17T08:08:58.425Z,8.30
2023-02-17T08:14:05.130Z,8.30
2023-02-17T08:19:12.119Z,8.30
2023-02-17T08:24:19.828Z,8.30
2023-02-17T08:29:26.348Z,8.30
2023-02-17T08:34:36.146Z,8.30
2023-02-17T08:39:44.660Z,8.30
2023-02-17T08:44:51.474Z,8.40
2023-02-17T08:49:58.363Z,8.50
2023-02-17T08:55:04.942Z,8.70
2023-02-17T09:00:12.157Z,8.70
2023-02-17T09:05:18.756Z,8.80
2023-02-17T09:10:25.929Z,8.90
2023-02-17T09:15:33.890Z,9.00
2023-02-17T09:20:41.190Z,9.00
2023-02-17T09:25:48.868Z,9.10
2023-02-17T09:30:56.081Z,9.20
2023-02-17T09:36:03.573Z,9.20
2023-02-17T09:41:48.869Z,9.10
2023-02-17T09:47:11.854Z,9.00
2023-02-17T09:52:25.468Z,8.90
2023-02-17T09:57:39.179Z,8.80
2023-02-17T10:02:59.461Z,8.80
2023-02-17T10:08:10.126Z,8.80
2023-02-17T10:13:20.229Z,8.90
2023-02-17T10:18:52.966Z,9.00
2023-02-17T10:24:00.710Z,9.00
2023-02-17T10:29:17.759Z,8.90
2023-02-17T10:34:50.574Z,9.00
2023-02-17T10:40:01.985Z,9.00
2023-02-17T10:45:34.386Z,9.10
2023-02-17T10:50:44.188Z,9.10
2023-02-17T10:56:02.526Z,9.10
2023-02-17T11:01:10.166Z,9.20
2023-02-17T11:06:26.236Z,9.30
2023-02-17T11:11:37.360Z,9.20
2023-02-17T11:16:51.254Z,9.30
2023-02-17T11:22:02.215Z,9.40
2023-02-17T11:27:12.600Z,9.30
2023-02-17T11:32:20.802Z,9.30
2023-02-17T11:37:29.727Z,9.20
2023-02-17T11:42:36.714Z,9.10
2023-02-17T11:48:01.160Z,9.20
2023-02-17T11:53:41.512Z,9.30
2023-02-17T11:59:09.633Z,9.20
2023-02-17T12:04:34.551Z,9.30
2023-02-17T12:10:00.421Z,9.20
2023-02-17T12:15:48.353Z,9.30
2023-02-17T12:21:23.352Z,9.40
2023-02-17T12:26:48.594Z,9.70
2023-02-17T12:32:17.247Z,9.80
2023-02-17T12:37:34.600Z,10.00
2023-02-17T12:42:49.016Z,10.10
2023-02-17T12:48:04.189Z,10.20
2023-02-17T12:53:15.446Z,10.40
2023-02-17T12:58:29.325Z,10.60
2023-02-17T13:03:37.881Z,10.50
2023-02-17T13:08:54.604Z,10.50
2023-02-17T13:14:32.135Z,10.50
2023-02-17T13:19:39.060Z,10.50
2023-02-17T13:25:01.763Z,10.70
2023-02-17T13:30:25.713Z,10.60
2023-02-17T13:35:36.323Z,10.80
2023-02-17T13:40:45.235Z,11.20
2023-02-17T13:46:04.656Z,11.40
2023-02-17T13:51:27.481Z,11.60
2023-02-17T13:56:34.164Z,11.60
2023-02-17T14:01:44.085Z,11.40
2023-02-17T14:06:52.005Z,11.10
2023-02-17T14:12:02.809Z,11.30
2023-02-17T14:17:33.776Z,11.70
2023-02-17T14:22:40.321Z,11.70
2023-02-17T14:27:51.947Z,11.70
2023-02-17T14:33:21.495Z,11.70
2023-02-17T14:38:39.665Z,11.70
2023-02-17T14:43:47.505Z,11.60
2023-02-17T14:48:55.187Z,11.70
2023-02-17T14:54:07.040Z,11.90
2023-02-17T14:59:14.259Z,12.10
2023-02-17T15:04:20.033Z,12.40
2023-02-17T15:09:32.068Z,12.10
2023-02-17T15:14:38.926Z,12.20
2023-02-17T15:19:46.222Z,12.30
2023-02-17T15:24:53.942Z,12.40
2023-02-17T15:30:01.739Z,12.40
2023-02-17T15:35:25.092Z,12.30
2023-02-17T15:40:32.486Z,12.40
2023-02-17T15:45:40.345Z,12.40
2023-02-17T15:50:48.232Z,12.60
2023-02-17T15:55:55.928Z,12.70
2023-02-17T16:01:04.346Z,12.60
2023-02-17T16:06:11.514Z,12.70
2023-02-17T16:11:20.962Z,12.80
2023-02-17T16:16:35.231Z,12.60
2023-02-17T16:21:42.077Z,12.60
2023-02-17T16:26:49.542Z,12.30
2023-02-17T16:31:56.770Z,12.40
2023-02-17T16:37:07.724Z,12.30
2023-02-17T16:42:16.216Z,12.00
2023-02-17T16:47:26.107Z,11.90
2023-02-17T16:52:33.248Z,12.00
2023-02-17T16:57:40.438Z,11.80
2023-02-17T17:02:50.243Z,11.70
2023-02-17T17:07:57.822Z,11.60
2023-02-17T17:13:04.690Z,11.50
2023-02-17T17:18:21.312Z,11.50
2023-02-17T17:23:28.251Z,11.40
2023-02-17T17:28:35.445Z,11.20
2023-02-17T17:33:42.886Z,11.20
2023-02-17T17:38:49.568Z,11.20
2023-02-17T17:43:57.676Z,11.10
2023-02-17T17:49:10.167Z,11.10
2023-02-17T17:54:16.958Z,11.10
2023-02-17T17:59:25.684Z,11.20
2023-02-17T18:04:34.156Z,11.10
2023-02-17T18:09:41.191Z,11.00
2023-02-17T18:14:52.769Z,11.00
2023-02-17T18:20:00.964Z,11.10
2023-02-17T18:25:08.763Z,11.10
2023-02-17T18:30:20.006Z,11.20
2023-02-17T18:35:26.839Z,11.30
2023-02-17T18:40:35.052Z,11.50
2023-02-17T18:45:41.677Z,11.50
2023-02-17T18:50:50.815Z,11.40
2023-02-17T18:55:58.016Z,11.50
2023-02-17T19:01:04.985Z,11.50
2023-02-17T19:06:17.007Z,11.40
2023-02-17T19:11:26.625Z,11.50
2023-02-17T19:16:35.526Z,11.50
2023-02-17T19:21:44.561Z,11.40
2023-02-17T19:26:53.756Z,11.40
2023-02-17T19:32:03.158Z,11.30
2023-02-17T19:37:10.994Z,11.40
2023-02-17T19:42:17.689Z,11.20
2023-02-17T19:47:25.312Z,11.00
2023-02-17T19:52:33.159Z,10.90
2023-02-17T19:57:40.191Z,10.90
2023-02-17T20:02:48.955Z,10.70
2023-02-17T20:07:57.770Z,10.60
2023-02-17T20:13:06.783Z,10.40
2023-02-17T20:18:15.173Z,10.30
2023-02-17T20:23:23.475Z,10.30
2023-02-17T20:28:30.524Z,10.30
2023-02-17T20:33:37.691Z,10.50
2023-02-17T20:38:46.590Z,10.40
2023-02-17T20:43:55.026Z,10.30
2023-02-17T20:49:01.989Z,10.20
2023-02-17T20:54:09.610Z,10.20
2023-02-17T20:59:17.614Z,10.20
2023-02-17T21:04:28.680Z,10.30
2023-02-17T21:09:35.779Z,10.30
2023-02-17T21:14:43.351Z,10.30
2023-02-17T21:19:51.084Z,10.50
2023-02-17T21:24:57.613Z,10.50
2023-02-17T21:30:08.419Z,10.40
2023-02-17T21:35:16.040Z,10.40
2023-02-17T21:40:22.970Z,10.50
2023-02-17T21:45:30.252Z,10.50
2023-02-17T21:50:36.933Z,10.60
2023-02-17T21:55:44.897Z,10.50
2023-02-17T22:00:51.734Z,10.50
2023-02-17T22:05:59.075Z,10.50
2023-02-17T22:11:05.966Z,10.50
2023-02-17T22:16:15.606Z,10.50
2023-02-17T22:21:22.812Z,10.50
2023-02-17T22:26:31.154Z,10.50
2023-02-17T22:31:38.407Z,10.50
2023-02-17T22:36:46.647Z,10.40
2023-02-17T22:41:56.176Z,10.40
2023-02-17T22:47:03.834Z,10.40
2023-02-17T22:52:12.273Z,10.30
2023-02-17T22:57:18.803Z,10.20
2023-02-17T23:02:26.597Z,10.00
2023-02-17T23:07:34.072Z,9.60
2023-02-17T23:12:41.722Z,8.90
2023-02-17T23:17:57.980Z,8.60
2023-02-17T23:23:05.770Z,8.40
2023-02-17T23:28:14.060Z,8.30
2023-02-17T23:33:25.060Z,8.30
2023-02-17T23:38:34.139Z,8.30
2023-02-17T23:43:41.498Z,8.30
2023-02-17T23:48:48.266Z,8.40
2023-02-17T23:53:55.302Z,8.50
2023-02-17T23:59:02.732Z,8.60
